createdAt,value
2023-04-09T00:00:39.794Z,18.67
2023-04-09T00:03:09.469Z,18.05
2023-04-09T00:05:40.565Z,18.45
2023-04-09T00:08:09.019Z,17.17
2023-04-09T00:10:37.211Z,17.50
2023-04-09T00:13:05.436Z,17.20
2023-04-09T00:15:33.665Z,17.70
2023-04-09T00:18:02.025Z,17.85
2023-04-09T00:20:31.625Z,18.80
2023-04-09T00:22:59.848Z,19.08
2023-04-09T00:25:28.788Z,18.02
2023-04-09T00:27:57.102Z,17.52
2023-04-09T00:30:25.661Z,17.60
2023-04-09T00:32:53.902Z,16.60
2023-04-09T00:35:22.591Z,16.35
2023-04-09T00:37:52.572Z,16.45
2023-04-09T00:40:20.875Z,18.25
2023-04-09T00:42:49.412Z,17.65
2023-04-09T00:45:17.617Z,17.80
2023-04-09T00:47:46.516Z,16.65
2023-04-09T00:50:14.853Z,16.25
2023-04-09T00:52:43.889Z,16.13
2023-04-09T00:55:14.650Z,15.00
2023-04-09T00:57:42.926Z,14.38
2023-04-09T01:00:13.130Z,14.18
2023-04-09T01:02:42.620Z,14.98
2023-04-09T01:05:12.361Z,14.00
2023-04-09T01:07:55.238Z,15.82
2023-04-09T01:10:33.090Z,13.57
2023-04-09T01:13:08.854Z,13.13
2023-04-09T01:15:42.299Z,15.30
2023-04-09T01:18:17.228Z,14.50
2023-04-09T01:20:53.224Z,14.27
2023-04-09T01:23:33.633Z,14.55
2023-04-09T01:26:08.659Z,14.63
2023-04-09T01:28:50.449Z,15.18
2023-04-09T01:31:21.295Z,14.60
2023-04-09T01:33:49.621Z,13.73
2023-04-09T01:36:18.491Z,15.50
2023-04-09T01:38:51.477Z,13.75
2023-04-09T01:41:22.965Z,13.68
2023-04-09T01:43:53.335Z,13.73
2023-04-09T01:46:22.876Z,14.18
2023-04-09T01:48:52.745Z,13.45
2023-04-09T01:51:21.294Z,13.70
2023-04-09T01:53:50.119Z,13.57
2023-04-09T01:56:18.824Z,12.52
2023-04-09T01:58:47.540Z,13.25
2023-04-09T02:01:24.125Z,12.95
2023-04-09T02:03:58.008Z,12.45
2023-04-09T02:06:33.195Z,13.23
2023-04-09T02:09:02.719Z,14.60
2023-04-09T02:11:33.680Z,13.40
2023-04-09T02:14:02.697Z,13.20
2023-04-09T02:16:33.312Z,13.93
2023-04-09T02:19:02.268Z,13.23
2023-04-09T02:21:31.763Z,13.52
2023-04-09T02:24:00.176Z,14.50
2023-04-09T02:26:28.476Z,14.10
2023-04-09T02:28:56.832Z,12.25
2023-04-09T02:31:25.017Z,13.88
2023-04-09T02:33:54.708Z,13.65
2023-04-09T02:36:22.978Z,13.00
2023-04-09T02:38:51.415Z,13.82
2023-04-09T02:41:21.188Z,14.23
2023-04-09T02:43:49.543Z,14.25
2023-04-09T02:46:17.739Z,14.98
2023-04-09T02:48:46.010Z,14.52
2023-04-09T02:51:15.613Z,15.32
2023-04-09T02:53:45.690Z,14.93
2023-04-09T02:56:14.062Z,13.90
2023-04-09T02:58:42.366Z,14.10
2023-04-09T03:01:10.668Z,14.90
2023-04-09T03:03:42.217Z,15.07
2023-04-09T03:06:10.618Z,16.70
2023-04-09T03:08:40.348Z,14.77
2023-04-09T03:11:08.561Z,15.15
2023-04-09T03:13:36.871Z,14.48
2023-04-09T03:16:05.748Z,15.40
2023-04-09T03:18:34.110Z,14.80
2023-04-09T03:21:06.568Z,15.10
2023-04-09T03:23:37.226Z,16.20
2023-04-09T03:26:08.707Z,15.35
2023-04-09T03:28:44.656Z,14.65
2023-04-09T03:31:14.143Z,15.32
2023-04-09T03:33:43.772Z,16.17
2023-04-09T03:36:13.064Z,17.77
2023-04-09T03:39:04.549Z,14.23
2023-04-09T03:41:46.208Z,16.35
2023-04-09T03:44:17.345Z,15.75
2023-04-09T03:47:15.020Z,16.38
2023-04-09T03:49:43.507Z,17.60
2023-04-09T03:52:25.656Z,18.65
2023-04-09T03:55:01.352Z,17.52
2023-04-09T03:57:31.319Z,17.73
2023-04-09T03:59:59.907Z,18.38
2023-04-09T04:02:30.510Z,17.52
2023-04-09T04:05:03.465Z,18.55
2023-04-09T04:07:37.095Z,19.08
2023-04-09T04:10:12.455Z,21.65
2023-04-09T04:12:46.334Z,20.75
2023-04-09T04:15:21.074Z,18.95
2023-04-09T04:17:54.684Z,22.27
2023-04-09T04:20:48.791Z,21.80
2023-04-09T04:23:17.010Z,21.80
2023-04-09T04:25:54.562Z,22.77
2023-04-09T04:28:37.563Z,21.00
2023-04-09T04:31:09.579Z,21.75
2023-04-09T04:33:38.822Z,20.45
2023-04-09T04:36:13.569Z,20.35
2023-04-09T04:38:50.965Z,21.00
2023-04-09T04:41:33.418Z,20.33
2023-04-09T04:44:17.236Z,21.00
2023-04-09T04:46:45.543Z,23.13
2023-04-09T04:49:13.876Z,20.67
2023-04-09T04:51:48.528Z,21.33
2023-04-09T04:54:17.937Z,22.27
2023-04-09T04:56:52.917Z,22.17
2023-04-09T04:59:42.853Z,21.70
2023-04-09T05:02:13.347Z,21.40
2023-04-09T05:05:00.677Z,20.70
2023-04-09T05:07:36.008Z,20.55
2023-04-09T05:10:04.765Z,21.42
2023-04-09T05:12:38.612Z,23.92
2023-04-09T05:15:09.720Z,24.27
2023-04-09T05:17:39.470Z,22.42
2023-04-09T05:20:10.203Z,21.67
2023-04-09T05:22:53.756Z,23.63
2023-04-09T05:25:28.997Z,24.90
2023-04-09T05:27:57.739Z,23.38
2023-04-09T05:30:28.206Z,23.52
2023-04-09T05:32:58.941Z,24.45
2023-04-09T05:35:29.336Z,22.75
2023-04-09T05:37:57.915Z,21.90
2023-04-09T05:40:26.252Z,21.00
2023-04-09T05:42:55.407Z,18.75
2023-04-09T05:45:43.947Z,19.70
2023-04-09T05:48:12.858Z,19.63
2023-04-09T05:50:54.095Z,18.65
2023-04-09T05:53:25.680Z,21.05
2023-04-09T05:55:53.956Z,18.35
2023-04-09T05:58:26.376Z,17.02
2023-04-09T06:00:56.247Z,19.75
2023-04-09T06:03:24.663Z,16.92
2023-04-09T06:05:53.342Z,18.08
2023-04-09T06:08:21.604Z,16.17
2023-04-09T06:10:49.748Z,17.80
2023-04-09T06:13:17.922Z,17.08
2023-04-09T06:15:46.177Z,17.08
2023-04-09T06:18:18.093Z,17.40
2023-04-09T06:20:46.346Z,17.83
2023-04-09T06:23:14.729Z,16.20
2023-04-09T06:25:43.021Z,17.30
2023-04-09T06:28:11.556Z,16.67
2023-04-09T06:30:39.779Z,16.10
2023-04-09T06:33:08.002Z,17.15
2023-04-09T06:35:38.180Z,17.50
2023-04-09T06:38:06.851Z,17.42
2023-04-09T06:40:35.272Z,16.92
2023-04-09T06:43:03.688Z,15.57
2023-04-09T06:45:41.065Z,16.58
2023-04-09T06:48:09.401Z,18.08
2023-04-09T06:50:39.141Z,16.85
2023-04-09T06:53:08.106Z,16.23
2023-04-09T06:55:36.478Z,14.88
2023-04-09T06:58:04.682Z,16.42
2023-04-09T07:00:32.906Z,17.35
2023-04-09T07:03:01.804Z,15.98
2023-04-09T07:05:30.716Z,16.50
2023-04-09T07:08:00.280Z,14.65
2023-04-09T07:10:28.646Z,17.02
2023-04-09T07:12:56.893Z,17.10
2023-04-09T07:15:25.618Z,14.15
2023-04-09T07:17:53.934Z,16.55
2023-04-09T07:20:22.290Z,13.25
2023-04-09T07:22:50.965Z,14.00
2023-04-09T07:25:21.440Z,15.70
2023-04-09T07:27:49.813Z,14.55
2023-04-09T07:30:18.148Z,14.02
2023-04-09T07:32:46.400Z,14.70
2023-04-09T07:35:14.986Z,13.65
2023-04-09T07:37:43.265Z,12.75
2023-04-09T07:40:11.993Z,14.68
2023-04-09T07:42:42.541Z,13.52
2023-04-09T07:45:11.251Z,13.93
2023-04-09T07:47:40.809Z,13.55
2023-04-09T07:50:10.559Z,14.68
2023-04-09T07:52:39.354Z,18.75
2023-04-09T07:55:08.640Z,13.02
2023-04-09T07:57:36.978Z,13.80
2023-04-09T08:00:08.446Z,14.65
2023-04-09T08:02:45.226Z,12.20
2023-04-09T08:05:13.772Z,11.15
2023-04-09T08:07:42.023Z,11.13
2023-04-09T08:10:15.187Z,10.77
2023-04-09T08:12:43.675Z,13.65
2023-04-09T08:15:13.338Z,14.82
2023-04-09T08:17:41.776Z,15.13
2023-04-09T08:20:11.386Z,11.30
2023-04-09T08:22:41.199Z,13.75
2023-04-09T08:25:09.885Z,14.07
2023-04-09T08:27:39.708Z,13.60
2023-04-09T08:30:09.084Z,14.07
2023-04-09T08:32:38.789Z,12.50
2023-04-09T08:35:09.121Z,13.07
2023-04-09T08:37:37.290Z,12.23
2023-04-09T08:40:06.457Z,13.57
2023-04-09T08:42:36.118Z,14.02
2023-04-09T08:45:05.656Z,13.98
2023-04-09T08:47:35.636Z,12.98
2023-04-09T08:50:06.159Z,11.88
2023-04-09T08:52:35.810Z,11.50
2023-04-09T08:55:04.352Z,12.77
2023-04-09T08:57:39.135Z,12.23
2023-04-09T09:00:09.397Z,11.60
2023-04-09T09:02:38.836Z,13.02
2023-04-09T09:05:09.485Z,11.45
2023-04-09T09:07:38.135Z,12.73
2023-04-09T09:10:07.421Z,13.02
2023-04-09T09:12:38.244Z,9.80
2023-04-09T09:15:25.669Z,11.35
2023-04-09T09:17:56.132Z,11.23
2023-04-09T09:20:27.193Z,13.02
2023-04-09T09:22:57.212Z,11.13
2023-04-09T09:25:26.483Z,12.00
2023-04-09T09:27:55.910Z,11.90
2023-04-09T09:30:25.850Z,11.82
2023-04-09T09:32:55.236Z,11.63
2023-04-09T09:35:25.059Z,12.48
2023-04-09T09:38:04.532Z,11.63
2023-04-09T09:40:32.929Z,11.98
2023-04-09T09:43:01.158Z,11.20
2023-04-09T09:45:31.452Z,10.35
2023-04-09T09:47:59.675Z,11.65
2023-04-09T09:50:32.408Z,12.68
2023-04-09T09:53:04.608Z,10.57
2023-04-09T09:55:33.853Z,13.40
2023-04-09T09:58:04.753Z,15.20
2023-04-09T10:00:34.309Z,12.47
2023-04-09T10:03:10.656Z,12.40
2023-04-09T10:05:42.572Z,9.73
2023-04-09T10:08:12.003Z,12.10
2023-04-09T10:10:43.086Z,9.57
2023-04-09T10:13:16.624Z,9.13
2023-04-09T10:15:46.158Z,8.77
2023-04-09T10:18:14.595Z,9.38
2023-04-09T10:20:50.886Z,8.98
2023-04-09T10:23:32.339Z,8.80
2023-04-09T10:26:00.633Z,9.88
2023-04-09T10:28:28.829Z,8.18
2023-04-09T10:30:57.540Z,9.13
2023-04-09T10:33:28.099Z,11.20
2023-04-09T10:36:02.143Z,12.50
2023-04-09T10:38:38.477Z,10.90
2023-04-09T10:41:15.324Z,8.83
2023-04-09T10:43:44.295Z,9.20
2023-04-09T10:46:29.670Z,9.30
2023-04-09T10:49:11.892Z,9.80
2023-04-09T10:51:42.287Z,9.60
2023-04-09T10:54:43.840Z,10.10
2023-04-09T10:57:22.227Z,8.40
2023-04-09T10:59:52.186Z,9.43
2023-04-09T11:02:46.482Z,8.10
2023-04-09T11:05:22.941Z,10.07
2023-04-09T11:07:56.243Z,9.03
2023-04-09T11:10:24.555Z,9.27
2023-04-09T11:12:53.810Z,8.70
2023-04-09T11:15:22.553Z,9.93
2023-04-09T11:17:51.353Z,10.00
2023-04-09T11:20:22.348Z,8.90
2023-04-09T11:22:53.176Z,9.10
2023-04-09T11:25:22.463Z,10.30
2023-04-09T11:27:51.429Z,8.77
2023-04-09T11:30:19.974Z,8.50
2023-04-09T11:32:48.924Z,8.40
2023-04-09T11:35:19.006Z,8.40
2023-04-09T11:37:48.203Z,9.03
2023-04-09T11:40:19.686Z,8.40
2023-04-09T11:42:50.781Z,9.70
2023-04-09T11:45:20.107Z,10.55
2023-04-09T11:47:48.603Z,9.07
2023-04-09T11:50:17.390Z,9.60
2023-04-09T11:52:47.105Z,9.40
2023-04-09T11:55:26.446Z,9.95
2023-04-09T11:58:00.877Z,10.50
2023-04-09T12:00:30.234Z,8.60
2023-04-09T12:03:03.985Z,9.05
2023-04-09T12:05:34.503Z,9.65
2023-04-09T12:08:05.032Z,7.00
2023-04-09T12:10:38.830Z,9.30
2023-04-09T12:13:09.260Z,10.32
2023-04-09T12:15:39.113Z,9.85
2023-04-09T12:18:10.212Z,8.35
2023-04-09T12:20:40.823Z,9.57
2023-04-09T12:23:10.499Z,9.25
2023-04-09T12:25:41.839Z,10.70
2023-04-09T12:28:12.146Z,9.57
2023-04-09T12:30:40.596Z,8.55
2023-04-09T12:33:10.962Z,9.77
2023-04-09T12:35:40.057Z,8.83
2023-04-09T12:38:08.467Z,8.97
2023-04-09T12:40:37.300Z,8.73
2023-04-09T12:43:06.956Z,8.30
2023-04-09T12:45:35.502Z,8.63
2023-04-09T12:48:03.764Z,9.02
2023-04-09T12:50:32.038Z,8.95
2023-04-09T12:53:00.333Z,8.43
2023-04-09T12:55:29.067Z,8.90
2023-04-09T12:57:57.374Z,8.50
2023-04-09T13:00:30.910Z,8.00
2023-04-09T13:02:59.440Z,9.13
2023-04-09T13:05:27.778Z,9.20
2023-04-09T13:07:56.017Z,8.40
2023-04-09T13:10:24.188Z,6.18
2023-04-09T13:12:52.527Z,7.63
2023-04-09T13:15:20.812Z,7.00
2023-04-09T13:17:50.466Z,7.90
2023-04-09T13:20:18.826Z,7.93
2023-04-09T13:22:48.914Z,7.63
2023-04-09T13:25:17.156Z,8.30
2023-04-09T13:27:45.859Z,8.50
2023-04-09T13:30:14.125Z,8.55
2023-04-09T13:32:42.476Z,10.15
2023-04-09T13:35:12.313Z,8.73
2023-04-09T13:37:40.634Z,8.68
2023-04-09T13:40:10.118Z,8.48
2023-04-09T13:42:38.553Z,8.52
2023-04-09T13:45:08.131Z,8.65
2023-04-09T13:47:36.709Z,9.80
2023-04-09T13:50:05.648Z,11.07
2023-04-09T13:52:35.386Z,10.80
2023-04-09T13:55:04.047Z,10.05
2023-04-09T13:57:32.377Z,9.38
2023-04-09T14:00:02.663Z,8.82
2023-04-09T14:02:33.510Z,9.90
2023-04-09T14:05:02.599Z,10.75
2023-04-09T14:07:30.916Z,9.95
2023-04-09T14:10:00.650Z,10.20
2023-04-09T14:12:29.091Z,9.30
2023-04-09T14:14:57.350Z,10.80
2023-04-09T14:17:25.847Z,11.05
2023-04-09T14:19:54.594Z,11.00
2023-04-09T14:22:22.791Z,12.30
2023-04-09T14:24:51.458Z,14.98
2023-04-09T14:27:21.243Z,14.38
2023-04-09T14:29:49.466Z,17.20
2023-04-09T14:32:17.801Z,19.58
2023-04-09T14:34:46.060Z,16.80
2023-04-09T14:37:14.323Z,18.85
2023-04-09T14:39:42.740Z,18.70
2023-04-09T14:42:11.005Z,18.65
2023-04-09T14:44:40.638Z,14.82
2023-04-09T14:47:09.032Z,15.07
2023-04-09T14:49:37.332Z,16.23
2023-04-09T14:52:05.773Z,15.55
2023-04-09T14:54:34.152Z,15.68
2023-04-09T14:57:02.908Z,15.27
2023-04-09T14:59:31.112Z,17.92
2023-04-09T15:02:01.193Z,16.38
2023-04-09T15:04:29.632Z,18.35
2023-04-09T15:06:57.985Z,16.40
2023-04-09T15:09:26.371Z,18.60
2023-04-09T15:11:55.188Z,16.30
2023-04-09T15:14:23.914Z,15.45
2023-04-09T15:16:55.846Z,16.55
2023-04-09T15:19:25.571Z,15.70
2023-04-09T15:21:53.770Z,18.13
2023-04-09T15:24:21.898Z,20.00
2023-04-09T15:26:50.537Z,20.50
2023-04-09T15:29:18.737Z,19.83
2023-04-09T15:31:46.999Z,18.80
2023-04-09T15:34:15.535Z,17.42
2023-04-09T15:36:46.242Z,18.25
2023-04-09T15:39:15.013Z,17.17
2023-04-09T15:41:43.295Z,18.55
2023-04-09T15:44:11.774Z,16.60
2023-04-09T15:46:40.075Z,16.17
2023-04-09T15:49:08.360Z,16.85
2023-04-09T15:51:37.032Z,14.63
2023-04-09T15:54:06.657Z,14.50
2023-04-09T15:56:36.992Z,14.80
2023-04-09T15:59:05.409Z,14.73
2023-04-09T16:01:34.221Z,16.40
2023-04-09T16:04:02.652Z,15.23
2023-04-09T16:06:30.998Z,15.93
2023-04-09T16:08:59.235Z,15.60
2023-04-09T16:11:28.883Z,15.85
2023-04-09T16:13:57.241Z,17.02
2023-04-09T16:16:25.511Z,16.08
2023-04-09T16:18:54.191Z,16.88
2023-04-09T16:21:22.787Z,15.25
2023-04-09T16:23:50.974Z,16.45
2023-04-09T16:26:19.140Z,14.88
2023-04-09T16:28:49.805Z,13.48
2023-04-09T16:31:18.025Z,13.52
2023-04-09T16:33:46.322Z,13.40
2023-04-09T16:36:14.712Z,13.13
2023-04-09T16:38:42.933Z,13.02
2023-04-09T16:41:11.420Z,14.65
2023-04-09T16:43:39.578Z,14.68
2023-04-09T16:46:10.800Z,12.20
2023-04-09T16:48:41.707Z,14.82
2023-04-09T16:51:10.442Z,14.05
2023-04-09T16:53:40.127Z,13.70
2023-04-09T16:56:09.212Z,13.77
2023-04-09T16:58:37.839Z,14.90
2023-04-09T17:01:07.099Z,14.77
2023-04-09T17:03:37.309Z,15.27
2023-04-09T17:06:06.148Z,17.05
2023-04-09T17:08:36.514Z,15.45
2023-04-09T17:11:04.940Z,18.23
2023-04-09T17:13:35.875Z,16.63
2023-04-09T17:16:04.525Z,18.58
2023-04-09T17:18:32.704Z,16.90
2023-04-09T17:21:02.787Z,18.45
2023-04-09T17:23:31.010Z,19.38
2023-04-09T17:26:01.204Z,18.98
2023-04-09T17:28:29.598Z,20.10
2023-04-09T17:30:57.903Z,20.55
2023-04-09T17:33:26.140Z,19.25
2023-04-09T17:35:54.905Z,20.85
2023-04-09T17:38:25.258Z,18.27
2023-04-09T17:40:54.434Z,19.83
2023-04-09T17:43:22.877Z,18.80
2023-04-09T17:45:51.121Z,18.52
2023-04-09T17:48:19.472Z,19.42
2023-04-09T17:50:47.900Z,20.92
2023-04-09T17:53:16.603Z,19.15
2023-04-09T17:55:48.859Z,18.55
2023-04-09T17:58:17.636Z,18.23
2023-04-09T18:00:45.790Z,17.27
2023-04-09T18:03:14.510Z,16.27
2023-04-09T18:05:43.009Z,18.38
2023-04-09T18:08:11.564Z,17.05
2023-04-09T18:10:39.910Z,18.52
2023-04-09T18:13:09.823Z,16.55
2023-04-09T18:15:38.569Z,15.48
2023-04-09T18:18:06.894Z,14.70
2023-04-09T18:20:35.150Z,14.60
2023-04-09T18:23:03.475Z,16.02
2023-04-09T18:25:31.709Z,14.32
2023-04-09T18:28:00.033Z,14.90
2023-04-09T18:30:29.538Z,13.50
2023-04-09T18:32:57.941Z,13.45
2023-04-09T18:35:26.281Z,13.43
2023-04-09T18:37:54.521Z,13.23
2023-04-09T18:40:22.829Z,12.43
2023-04-09T18:42:52.491Z,12.35
2023-04-09T18:45:20.990Z,13.45
2023-04-09T18:47:50.685Z,12.50
2023-04-09T18:50:19.021Z,12.60
2023-04-09T18:52:47.320Z,14.15
2023-04-09T18:55:16.446Z,14.50
2023-04-09T18:57:45.153Z,14.52
2023-04-09T19:00:14.349Z,14.10
2023-04-09T19:02:42.854Z,13.57
2023-04-09T19:05:12.820Z,15.25
2023-04-09T19:07:41.111Z,14.82
2023-04-09T19:10:10.094Z,14.80
2023-04-09T19:12:39.147Z,15.88
2023-04-09T19:15:08.343Z,15.38
2023-04-09T19:17:36.541Z,16.98
2023-04-09T19:20:05.276Z,15.93
2023-04-09T19:22:34.853Z,16.58
2023-04-09T19:25:03.119Z,17.42
2023-04-09T19:27:31.546Z,15.93
2023-04-09T19:30:01.117Z,17.02
2023-04-09T19:32:29.356Z,16.67
2023-04-09T19:34:57.494Z,16.90
2023-04-09T19:37:28.038Z,19.50
2023-04-09T19:39:59.082Z,17.02
2023-04-09T19:42:28.726Z,16.70
2023-04-09T19:44:56.874Z,13.85
2023-04-09T19:47:25.200Z,12.30
2023-04-09T19:49:53.577Z,12.52
2023-04-09T19:52:21.943Z,10.13
2023-04-09T19:54:55.021Z,10.70
2023-04-09T19:57:26.488Z,11.60
2023-04-09T19:59:55.143Z,10.98
2023-04-09T20:02:23.909Z,12.05
2023-04-09T20:04:52.389Z,12.07
2023-04-09T20:07:20.674Z,11.70
2023-04-09T20:09:49.713Z,11.80
2023-04-09T20:12:17.929Z,10.90
2023-04-09T20:14:49.366Z,10.80
2023-04-09T20:17:19.816Z,11.80
2023-04-09T20:19:48.061Z,11.15
2023-04-09T20:22:16.326Z,12.25
2023-04-09T20:24:44.495Z,12.30
2023-04-09T20:27:12.778Z,13.57
2023-04-09T20:29:41.008Z,12.80
2023-04-09T20:32:10.584Z,12.57
2023-04-09T20:34:38.837Z,11.85
2023-04-09T20:37:07.143Z,12.93
2023-04-09T20:39:35.419Z,12.05
2023-04-09T20:42:03.802Z,11.88
2023-04-09T20:44:32.024Z,12.52
2023-04-09T20:47:00.325Z,13.48
2023-04-09T20:49:29.908Z,12.75
2023-04-09T20:51:58.185Z,12.23
2023-04-09T20:54:26.478Z,13.45
2023-04-09T20:56:55.150Z,13.38
2023-04-09T20:59:23.597Z,12.05
2023-04-09T21:01:52.546Z,13.52
2023-04-09T21:04:20.998Z,14.05
2023-04-09T21:06:50.899Z,14.45
2023-04-09T21:09:19.018Z,14.70
2023-04-09T21:11:47.305Z,16.40
2023-04-09T21:14:15.906Z,15.60
2023-04-09T21:16:44.153Z,17.27
2023-04-09T21:19:12.409Z,15.30
2023-04-09T21:21:40.628Z,16.00
2023-04-09T21:24:10.218Z,15.82
2023-04-09T21:26:50.239Z,14.35
2023-04-09T21:29:20.305Z,15.25
2023-04-09T21:31:49.196Z,14.50
2023-04-09T21:34:17.426Z,15.68
2023-04-09T21:36:46.212Z,14.90
2023-04-09T21:39:15.861Z,14.73
2023-04-09T21:41:44.126Z,13.93
2023-04-09T21:44:12.246Z,14.65
2023-04-09T21:46:41.778Z,12.43
2023-04-09T21:49:10.099Z,13.45
2023-04-09T21:51:39.355Z,14.23
2023-04-09T21:54:09.754Z,13.05
2023-04-09T21:56:39.807Z,14.57
2023-04-09T21:59:08.022Z,13.73
2023-04-09T22:01:36.441Z,15.50
2023-04-09T22:04:05.033Z,15.43
2023-04-09T22:06:33.530Z,13.90
2023-04-09T22:09:02.180Z,13.98
2023-04-09T22:11:30.637Z,12.70
2023-04-09T22:14:00.399Z,15.15
2023-04-09T22:16:28.804Z,13.02
2023-04-09T22:18:57.605Z,12.35
2023-04-09T22:21:26.589Z,12.73
2023-04-09T22:23:55.233Z,13.27
2023-04-09T22:26:23.972Z,13.20
2023-04-09T22:28:52.414Z,12.50
2023-04-09T22:31:22.941Z,11.95
2023-04-09T22:33:51.302Z,11.52
2023-04-09T22:36:19.748Z,11.48
2023-04-09T22:38:48.056Z,11.52
2023-04-09T22:41:17.738Z,11.63
2023-04-09T22:43:46.049Z,12.02
2023-04-09T22:46:14.423Z,12.82
2023-04-09T22:48:45.239Z,11.35
2023-04-09T22:51:14.110Z,12.52
2023-04-09T22:53:42.635Z,10.80
2023-04-09T22:56:11.059Z,12.10
2023-04-09T22:58:39.452Z,11.93
2023-04-09T23:01:08.308Z,12.65
2023-04-09T23:03:36.630Z,10.45
2023-04-09T23:06:06.973Z,11.02
2023-04-09T23:08:35.192Z,11.73
2023-04-09T23:11:05.372Z,12.57
2023-04-09T23:13:33.697Z,11.45
2023-04-09T23:16:04.983Z,11.45
2023-04-09T23:18:33.463Z,13.00
2023-04-09T23:21:06.936Z,12.48
2023-04-09T23:23:35.466Z,12.00
2023-04-09T23:26:03.958Z,13.18
2023-04-09T23:28:32.277Z,13.25
2023-04-09T23:31:00.639Z,13.05
2023-04-09T23:33:29.347Z,13.60
2023-04-09T23:35:57.620Z,13.18
2023-04-09T23:38:27.229Z,12.60
2023-04-09T23:40:55.660Z,12.25
2023-04-09T23:43:23.968Z,11.93
2023-04-09T23:45:52.637Z,12.15
2023-04-09T23:48:21.111Z,11.70
2023-04-09T23:50:49.312Z,12.45
2023-04-09T23:53:17.728Z,11.70
2023-04-09T23:55:47.876Z,11.65
2023-04-09T23:58:16.025Z,11.20
